sensor_id;sensor_type;location;lat;lon;timestamp;pressure;altitude;pressure_sealevel;temperature;humidity
25420;BME280;13354;48.174;11.566;2023-03-03T00:00:08;95767.41;;;2.32;80.63
25420;BME280;13354;48.174;11.566;2023-03-03T00:02:33;95762.59;;;2.47;80.37
25420;BME280;13354;48.174;11.566;2023-03-03T00:04:58;95759.59;;;2.41;80.39
25420;BME280;13354;48.174;11.566;2023-03-03T00:07:23;95769.38;;;2.39;80.55
25420;BME280;13354;48.174;11.566;2023-03-03T00:09:49;95765.91;;;2.49;80.23
25420;BME280;13354;48.174;11.566;2023-03-03T00:12:22;95775.69;;;2.37;80.42
25420;BME280;13354;48.174;11.566;2023-03-03T00:14:48;95764.69;;;2.33;80.55
25420;BME280;13354;48.174;11.566;2023-03-03T00:17:24;95766.75;;;2.30;80.93
25420;BME280;13354;48.174;11.566;2023-03-03T00:19:50;95764.00;;;2.31;80.91
25420;BME280;13354;48.174;11.566;2023-03-03T00:22:21;95765.94;;;2.29;81.45
25420;BME280;13354;48.174;11.566;2023-03-03T00:24:51;95764.13;;;2.30;81.09
25420;BME280;13354;48.174;11.566;2023-03-03T00:27:20;95750.81;;;2.33;80.87
25420;BME280;13354;48.174;11.566;2023-03-03T00:29:54;95757.53;;;2.35;80.68
25420;BME280;13354;48.174;11.566;2023-03-03T00:32:40;95753.97;;;2.36;80.95
25420;BME280;13354;48.174;11.566;2023-03-03T00:37:47;95761.09;;;2.34;81.01
25420;BME280;13354;48.174;11.566;2023-03-03T00:42:46;95762.34;;;2.30;81.20
25420;BME280;13354;48.174;11.566;2023-03-03T00:45:55;95767.56;;;2.30;81.62
25420;BME280;13354;48.174;11.566;2023-03-03T00:48:07;95772.25;;;2.27;81.39
25420;BME280;13354;48.174;11.566;2023-03-03T00:50:34;95771.56;;;2.25;81.37
25420;BME280;13354;48.174;11.566;2023-03-03T00:53:04;95778.00;;;2.21;81.61
25420;BME280;13354;48.174;11.566;2023-03-03T00:55:30;95776.09;;;2.32;81.36
25420;BME280;13354;48.174;11.566;2023-03-03T00:57:55;95775.94;;;2.24;81.56
25420;BME280;13354;48.174;11.566;2023-03-03T01:00:20;95774.72;;;2.28;81.64
25420;BME280;13354;48.174;11.566;2023-03-03T01:02:46;95776.38;;;2.20;82.14
25420;BME280;13354;48.174;11.566;2023-03-03T01:05:13;95769.63;;;2.27;81.95
25420;BME280;13354;48.174;11.566;2023-03-03T01:07:39;95775.81;;;2.16;82.25
25420;BME280;13354;48.174;11.566;2023-03-03T01:10:05;95778.44;;;2.16;82.43
25420;BME280;13354;48.174;11.566;2023-03-03T01:12:30;95769.38;;;2.10;82.39
25420;BME280;13354;48.174;11.566;2023-03-03T01:14:55;95770.31;;;2.09;82.55
25420;BME280;13354;48.174;11.566;2023-03-03T01:17:20;95768.53;;;2.10;82.65
25420;BME280;13354;48.174;11.566;2023-03-03T01:19:46;95766.34;;;2.25;82.47
25420;BME280;13354;48.174;11.566;2023-03-03T01:22:11;95766.75;;;2.30;81.94
25420;BME280;13354;48.174;11.566;2023-03-03T01:24:36;95762.50;;;2.29;81.91
25420;BME280;13354;48.174;11.566;2023-03-03T01:27:02;95764.00;;;2.22;82.04
25420;BME280;13354;48.174;11.566;2023-03-03T01:29:27;95762.22;;;2.22;82.68
25420;BME280;13354;48.174;11.566;2023-03-03T01:31:52;95760.31;;;2.14;82.82
25420;BME280;13354;48.174;11.566;2023-03-03T01:34:18;95755.47;;;2.20;82.58
25420;BME280;13354;48.174;11.566;2023-03-03T01:36:43;95755.22;;;2.23;82.58
25420;BME280;13354;48.174;11.566;2023-03-03T01:39:09;95756.72;;;2.25;82.58
25420;BME280;13354;48.174;11.566;2023-03-03T01:41:34;95751.50;;;2.15;82.70
25420;BME280;13354;48.174;11.566;2023-03-03T01:44:00;95752.31;;;2.26;82.96
25420;BME280;13354;48.174;11.566;2023-03-03T01:46:28;95753.16;;;2.36;82.28
25420;BME280;13354;48.174;11.566;2023-03-03T01:48:57;95754.94;;;2.26;82.47
25420;BME280;13354;48.174;11.566;2023-03-03T01:51:31;95748.34;;;2.12;83.18
25420;BME280;13354;48.174;11.566;2023-03-03T01:54:05;95745.44;;;2.34;83.13
25420;BME280;13354;48.174;11.566;2023-03-03T01:56:31;95752.44;;;2.34;82.96
25420;BME280;13354;48.174;11.566;2023-03-03T02:01:22;95731.53;;;2.34;82.45
25420;BME280;13354;48.174;11.566;2023-03-03T02:03:48;95742.84;;;2.25;83.22
25420;BME280;13354;48.174;11.566;2023-03-03T02:06:15;95731.84;;;2.21;83.15
25420;BME280;13354;48.174;11.566;2023-03-03T02:11:26;95735.13;;;2.33;83.29
25420;BME280;13354;48.174;11.566;2023-03-03T02:13:54;95742.16;;;2.23;83.41
25420;BME280;13354;48.174;11.566;2023-03-03T02:16:19;95741.31;;;2.22;83.67
25420;BME280;13354;48.174;11.566;2023-03-03T02:18:44;95740.09;;;2.26;83.76
25420;BME280;13354;48.174;11.566;2023-03-03T02:21:19;95744.50;;;2.26;83.61
25420;BME280;13354;48.174;11.566;2023-03-03T02:26:17;95744.50;;;2.26;83.54
25420;BME280;13354;48.174;11.566;2023-03-03T02:28:43;95739.66;;;2.31;83.59
25420;BME280;13354;48.174;11.566;2023-03-03T02:31:13;95747.50;;;2.40;83.39
25420;BME280;13354;48.174;11.566;2023-03-03T02:33:43;95742.53;;;2.37;83.16
25420;BME280;13354;48.174;11.566;2023-03-03T02:36:41;95742.94;;;2.42;82.89
25420;BME280;13354;48.174;11.566;2023-03-03T02:41:26;95744.88;;;2.31;83.89
25420;BME280;13354;48.174;11.566;2023-03-03T02:43:57;95738.28;;;2.27;83.78
25420;BME280;13354;48.174;11.566;2023-03-03T02:46:24;95732.63;;;2.31;83.76
25420;BME280;13354;48.174;11.566;2023-03-03T02:48:50;95735.41;;;2.30;83.82
25420;BME280;13354;48.174;11.566;2023-03-03T02:51:15;95737.88;;;2.31;83.90
25420;BME280;13354;48.174;11.566;2023-03-03T02:53:40;95734.16;;;2.44;83.65
25420;BME280;13354;48.174;11.566;2023-03-03T02:56:05;95743.09;;;2.41;83.53
25420;BME280;13354;48.174;11.566;2023-03-03T02:58:33;95736.06;;;2.41;83.51
25420;BME280;13354;48.174;11.566;2023-03-03T03:00:58;95736.28;;;2.67;82.51
25420;BME280;13354;48.174;11.566;2023-03-03T03:03:23;95730.28;;;2.48;82.58
25420;BME280;13354;48.174;11.566;2023-03-03T03:05:49;95736.59;;;2.55;82.93
25420;BME280;13354;48.174;11.566;2023-03-03T03:08:14;95730.97;;;2.50;82.85
25420;BME280;13354;48.174;11.566;2023-03-03T03:10:39;95740.59;;;2.49;82.99
25420;BME280;13354;48.174;11.566;2023-03-03T03:13:04;95731.53;;;2.44;83.41
25420;BME280;13354;48.174;11.566;2023-03-03T03:15:30;95734.28;;;2.42;83.59
25420;BME280;13354;48.174;11.566;2023-03-03T03:17:55;95737.47;;;2.36;83.89
25420;BME280;13354;48.174;11.566;2023-03-03T03:20:20;95739.94;;;2.37;83.88
25420;BME280;13354;48.174;11.566;2023-03-03T03:22:46;95740.59;;;2.49;83.78
25420;BME280;13354;48.174;11.566;2023-03-03T03:25:11;95742.13;;;2.42;83.83
25420;BME280;13354;48.174;11.566;2023-03-03T03:27:36;95744.72;;;2.61;83.76
25420;BME280;13354;48.174;11.566;2023-03-03T03:30:01;95747.56;;;2.68;83.32
25420;BME280;13354;48.174;11.566;2023-03-03T03:32:27;95745.66;;;2.60;83.23
25420;BME280;13354;48.174;11.566;2023-03-03T03:34:52;95748.84;;;2.54;83.38
25420;BME280;13354;48.174;11.566;2023-03-03T03:37:17;95744.03;;;2.50;83.63
25420;BME280;13354;48.174;11.566;2023-03-03T03:39:42;95743.31;;;2.57;83.65
25420;BME280;13354;48.174;11.566;2023-03-03T03:42:08;95739.19;;;2.64;83.58
25420;BME280;13354;48.174;11.566;2023-03-03T03:44:33;95734.09;;;2.63;83.36
25420;BME280;13354;48.174;11.566;2023-03-03T03:46:59;95736.72;;;2.63;83.52
25420;BME280;13354;48.174;11.566;2023-03-03T03:49:24;95738.19;;;2.75;83.23
25420;BME280;13354;48.174;11.566;2023-03-03T03:51:49;95743.28;;;2.77;83.01
25420;BME280;13354;48.174;11.566;2023-03-03T03:54:14;95742.25;;;2.97;82.19
25420;BME280;13354;48.174;11.566;2023-03-03T03:56:40;95740.44;;;2.98;81.58
25420;BME280;13354;48.174;11.566;2023-03-03T03:59:05;95746.28;;;2.82;82.08
25420;BME280;13354;48.174;11.566;2023-03-03T04:01:31;95745.09;;;2.76;82.60
25420;BME280;13354;48.174;11.566;2023-03-03T04:03:56;95745.56;;;2.89;82.62
25420;BME280;13354;48.174;11.566;2023-03-03T04:06:21;95746.69;;;2.87;82.38
25420;BME280;13354;48.174;11.566;2023-03-03T04:08:47;95745.72;;;2.88;82.60
25420;BME280;13354;48.174;11.566;2023-03-03T04:11:12;95743.94;;;2.88;82.62
25420;BME280;13354;48.174;11.566;2023-03-03T04:13:37;95747.03;;;3.02;82.45
25420;BME280;13354;48.174;11.566;2023-03-03T04:16:02;95740.34;;;2.89;82.20
25420;BME280;13354;48.174;11.566;2023-03-03T04:18:28;95745.44;;;2.91;82.36
25420;BME280;13354;48.174;11.566;2023-03-03T04:20:54;95750.69;;;2.91;82.49
25420;BME280;13354;48.174;11.566;2023-03-03T04:23:19;95748.16;;;2.99;82.11
25420;BME280;13354;48.174;11.566;2023-03-03T04:25:45;95740.41;;;3.07;81.97
25420;BME280;13354;48.174;11.566;2023-03-03T04:28:11;95746.94;;;2.94;81.92
25420;BME280;13354;48.174;11.566;2023-03-03T04:30:36;95747.47;;;2.97;82.22
25420;BME280;13354;48.174;11.566;2023-03-03T04:33:01;95747.66;;;2.86;82.51
25420;BME280;13354;48.174;11.566;2023-03-03T04:35:26;95747.09;;;2.92;82.71
25420;BME280;13354;48.174;11.566;2023-03-03T04:37:52;95749.72;;;2.92;82.37
25420;BME280;13354;48.174;11.566;2023-03-03T04:40:18;95745.09;;;3.13;81.62
25420;BME280;13354;48.174;11.566;2023-03-03T04:42:43;95740.03;;;3.02;81.19
25420;BME280;13354;48.174;11.566;2023-03-03T04:45:08;95748.44;;;3.06;81.95
25420;BME280;13354;48.174;11.566;2023-03-03T04:47:34;95742.97;;;2.89;81.99
25420;BME280;13354;48.174;11.566;2023-03-03T04:49:59;95740.22;;;2.91;82.24
25420;BME280;13354;48.174;11.566;2023-03-03T04:52:24;95739.50;;;2.99;81.68
25420;BME280;13354;48.174;11.566;2023-03-03T04:54:50;95744.38;;;2.84;82.14
25420;BME280;13354;48.174;11.566;2023-03-03T04:57:15;95737.19;;;2.86;82.08
25420;BME280;13354;48.174;11.566;2023-03-03T04:59:40;95741.03;;;2.92;81.75
25420;BME280;13354;48.174;11.566;2023-03-03T05:02:05;95746.41;;;2.90;81.63
25420;BME280;13354;48.174;11.566;2023-03-03T05:04:31;95741.06;;;2.82;81.83
25420;BME280;13354;48.174;11.566;2023-03-03T05:06:56;95747.34;;;2.99;81.70
25420;BME280;13354;48.174;11.566;2023-03-03T05:09:21;95742.13;;;2.99;81.95
25420;BME280;13354;48.174;11.566;2023-03-03T05:11:47;95748.72;;;3.03;81.55
25420;BME280;13354;48.174;11.566;2023-03-03T05:14:12;95743.59;;;3.01;81.49
25420;BME280;13354;48.174;11.566;2023-03-03T05:16:37;95753.69;;;2.96;81.34
25420;BME280;13354;48.174;11.566;2023-03-03T05:19:03;95741.16;;;2.90;81.76
25420;BME280;13354;48.174;11.566;2023-03-03T05:21:28;95748.66;;;3.12;81.04
25420;BME280;13354;48.174;11.566;2023-03-03T05:23:53;95749.81;;;3.00;81.20
25420;BME280;13354;48.174;11.566;2023-03-03T05:26:18;95750.25;;;2.96;81.39
25420;BME280;13354;48.174;11.566;2023-03-03T05:28:44;95744.06;;;2.87;81.93
25420;BME280;13354;48.174;11.566;2023-03-03T05:31:09;95749.28;;;2.87;81.92
25420;BME280;13354;48.174;11.566;2023-03-03T05:33:34;95752.75;;;2.87;82.13
25420;BME280;13354;48.174;11.566;2023-03-03T05:35:59;95757.38;;;3.03;81.87
25420;BME280;13354;48.174;11.566;2023-03-03T05:38:25;95757.50;;;3.02;81.55
25420;BME280;13354;48.174;11.566;2023-03-03T05:40:50;95763.81;;;3.09;81.17
25420;BME280;13354;48.174;11.566;2023-03-03T05:43:15;95763.81;;;3.09;81.06
25420;BME280;13354;48.174;11.566;2023-03-03T05:45:40;95757.34;;;3.13;81.06
25420;BME280;13354;48.174;11.566;2023-03-03T05:48:05;95761.78;;;3.03;80.94
25420;BME280;13354;48.174;11.566;2023-03-03T05:50:31;95763.31;;;2.96;81.11
25420;BME280;13354;48.174;11.566;2023-03-03T05:52:57;95765.13;;;2.95;81.28
25420;BME280;13354;48.174;11.566;2023-03-03T05:55:22;95771.72;;;2.99;81.08
25420;BME280;13354;48.174;11.566;2023-03-03T05:57:47;95771.38;;;3.12;80.90
25420;BME280;13354;48.174;11.566;2023-03-03T06:00:13;95766.13;;;3.12;80.81
25420;BME280;13354;48.174;11.566;2023-03-03T06:02:39;95768.31;;;3.17;80.59
25420;BME280;13354;48.174;11.566;2023-03-03T06:05:05;95784.31;;;3.13;80.35
25420;BME280;13354;48.174;11.566;2023-03-03T06:07:31;95780.19;;;3.11;80.72
25420;BME280;13354;48.174;11.566;2023-03-03T06:09:56;95781.75;;;3.31;80.36
25420;BME280;13354;48.174;11.566;2023-03-03T06:12:21;95786.47;;;3.28;79.98
25420;BME280;13354;48.174;11.566;2023-03-03T06:14:46;95788.97;;;3.20;80.24
25420;BME280;13354;48.174;11.566;2023-03-03T06:17:12;95791.44;;;3.21;79.99
25420;BME280;13354;48.174;11.566;2023-03-03T06:19:37;95800.03;;;3.13;80.35
25420;BME280;13354;48.174;11.566;2023-03-03T06:22:02;95797.34;;;3.23;80.01
25420;BME280;13354;48.174;11.566;2023-03-03T06:24:28;95800.38;;;3.28;80.01
25420;BME280;13354;48.174;11.566;2023-03-03T06:26:56;95807.44;;;3.18;80.07
25420;BME280;13354;48.174;11.566;2023-03-03T06:29:21;95808.16;;;3.10;80.08
25420;BME280;13354;48.174;11.566;2023-03-03T06:31:46;95801.75;;;3.23;80.28
25420;BME280;13354;48.174;11.566;2023-03-03T06:34:11;95805.63;;;3.19;79.86
25420;BME280;13354;48.174;11.566;2023-03-03T06:36:36;95800.22;;;3.30;79.73
25420;BME280;13354;48.174;11.566;2023-03-03T06:39:02;95805.56;;;3.38;79.66
25420;BME280;13354;48.174;11.566;2023-03-03T06:41:28;95809.34;;;3.16;79.64
25420;BME280;13354;48.174;11.566;2023-03-03T06:43:53;95804.94;;;3.17;80.42
25420;BME280;13354;48.174;11.566;2023-03-03T06:46:18;95811.88;;;3.08;80.38
25420;BME280;13354;48.174;11.566;2023-03-03T06:48:44;95813.84;;;3.33;79.87
25420;BME280;13354;48.174;11.566;2023-03-03T06:51:15;95816.19;;;3.27;79.63
25420;BME280;13354;48.174;11.566;2023-03-03T06:53:44;95815.53;;;3.25;79.43
25420;BME280;13354;48.174;11.566;2023-03-03T06:56:09;95808.44;;;3.07;80.28
25420;BME280;13354;48.174;11.566;2023-03-03T06:58:35;95815.19;;;3.10;80.78
25420;BME280;13354;48.174;11.566;2023-03-03T07:01:00;95808.75;;;3.32;80.57
25420;BME280;13354;48.174;11.566;2023-03-03T07:03:27;95811.59;;;3.38;79.52
25420;BME280;13354;48.174;11.566;2023-03-03T07:05:56;95814.28;;;3.29;79.65
25420;BME280;13354;48.174;11.566;2023-03-03T07:08:22;95819.50;;;3.29;80.92
25420;BME280;13354;48.174;11.566;2023-03-03T07:10:48;95819.06;;;3.43;80.39
25420;BME280;13354;48.174;11.566;2023-03-03T07:13:21;95831.41;;;3.51;79.62
25420;BME280;13354;48.174;11.566;2023-03-03T07:15:51;95827.19;;;3.40;79.42
25420;BME280;13354;48.174;11.566;2023-03-03T07:21:05;95829.03;;;3.57;78.36
25420;BME280;13354;48.174;11.566;2023-03-03T07:23:37;95838.81;;;3.55;79.07
25420;BME280;13354;48.174;11.566;2023-03-03T07:26:12;95832.31;;;3.59;78.63
25420;BME280;13354;48.174;11.566;2023-03-03T07:28:41;95839.09;;;3.52;78.44
25420;BME280;13354;48.174;11.566;2023-03-03T07:31:27;95834.38;;;3.66;78.87
25420;BME280;13354;48.174;11.566;2023-03-03T07:33:53;95839.00;;;3.72;78.44
25420;BME280;13354;48.174;11.566;2023-03-03T07:36:27;95847.22;;;3.59;78.44
25420;BME280;13354;48.174;11.566;2023-03-03T07:38:54;95840.31;;;3.85;77.57
25420;BME280;13354;48.174;11.566;2023-03-03T07:41:19;95851.28;;;3.71;77.55
25420;BME280;13354;48.174;11.566;2023-03-03T07:46:28;95859.88;;;3.63;77.50
25420;BME280;13354;48.174;11.566;2023-03-03T07:48:55;95859.97;;;3.72;77.32
25420;BME280;13354;48.174;11.566;2023-03-03T07:53:53;95860.56;;;3.66;77.65
25420;BME280;13354;48.174;11.566;2023-03-03T07:56:21;95860.41;;;3.67;77.84
25420;BME280;13354;48.174;11.566;2023-03-03T07:58:50;95856.44;;;3.63;78.15
25420;BME280;13354;48.174;11.566;2023-03-03T08:03:44;95860.28;;;3.86;78.02
25420;BME280;13354;48.174;11.566;2023-03-03T08:06:54;95862.44;;;4.01;77.44
25420;BME280;13354;48.174;11.566;2023-03-03T08:09:24;95861.16;;;3.87;77.24
25420;BME280;13354;48.174;11.566;2023-03-03T08:11:58;95859.91;;;3.81;77.70
25420;BME280;13354;48.174;11.566;2023-03-03T08:14:29;95864.75;;;4.04;76.55
25420;BME280;13354;48.174;11.566;2023-03-03T08:16:55;95857.50;;;4.16;76.34
25420;BME280;13354;48.174;11.566;2023-03-03T08:19:21;95852.44;;;4.14;76.06
25420;BME280;13354;48.174;11.566;2023-03-03T08:21:46;95863.16;;;4.21;75.83
25420;BME280;13354;48.174;11.566;2023-03-03T08:24:11;95860.00;;;4.17;75.51
25420;BME280;13354;48.174;11.566;2023-03-03T08:26:36;95859.69;;;4.38;78.21
25420;BME280;13354;48.174;11.566;2023-03-03T08:29:02;95870.00;;;4.49;78.17
25420;BME280;13354;48.174;11.566;2023-03-03T08:31:27;95868.41;;;4.56;76.34
25420;BME280;13354;48.174;11.566;2023-03-03T08:33:53;95869.06;;;4.41;75.25
25420;BME280;13354;48.174;11.566;2023-03-03T08:36:18;95867.50;;;4.48;74.85
25420;BME280;13354;48.174;11.566;2023-03-03T08:38:43;95873.22;;;4.61;74.81
25420;BME280;13354;48.174;11.566;2023-03-03T08:41:09;95869.00;;;4.50;74.34
25420;BME280;13354;48.174;11.566;2023-03-03T08:43:34;95881.91;;;4.62;74.52
25420;BME280;13354;48.174;11.566;2023-03-03T08:46:00;95878.81;;;4.48;75.22
25420;BME280;13354;48.174;11.566;2023-03-03T08:48:26;95875.38;;;4.66;74.10
25420;BME280;13354;48.174;11.566;2023-03-03T08:50:51;95876.19;;;4.84;73.72
25420;BME280;13354;48.174;11.566;2023-03-03T08:53:18;95880.00;;;4.90;73.07
25420;BME280;13354;48.174;11.566;2023-03-03T08:55:44;95880.22;;;4.96;73.19
25420;BME280;13354;48.174;11.566;2023-03-03T08:58:09;95879.09;;;4.99;72.70
25420;BME280;13354;48.174;11.566;2023-03-03T09:00:34;95890.34;;;4.91;73.09
25420;BME280;13354;48.174;11.566;2023-03-03T09:02:59;95885.34;;;4.80;73.25
25420;BME280;13354;48.174;11.566;2023-03-03T09:05:25;95887.19;;;4.88;73.05
25420;BME280;13354;48.174;11.566;2023-03-03T09:07:50;95879.44;;;5.04;72.59
25420;BME280;13354;48.174;11.566;2023-03-03T09:10:17;95884.56;;;5.05;72.93
25420;BME280;13354;48.174;11.566;2023-03-03T09:12:43;95880.09;;;5.24;71.99
25420;BME280;13354;48.174;11.566;2023-03-03T09:17:37;95882.72;;;5.50;70.59
25420;BME280;13354;48.174;11.566;2023-03-03T09:22:47;95885.19;;;5.25;71.41
25420;BME280;13354;48.174;11.566;2023-03-03T09:25:45;95891.50;;;5.41;71.14
25420;BME280;13354;48.174;11.566;2023-03-03T09:28:04;95898.69;;;5.56;70.92
25420;BME280;13354;48.174;11.566;2023-03-03T09:30:35;95897.66;;;5.49;71.06
25420;BME280;13354;48.174;11.566;2023-03-03T09:33:01;95895.16;;;5.48;70.62
25420;BME280;13354;48.174;11.566;2023-03-03T09:35:41;95898.44;;;5.42;70.66
25420;BME280;13354;48.174;11.566;2023-03-03T09:38:29;95899.03;;;5.36;71.39
25420;BME280;13354;48.174;11.566;2023-03-03T09:43:34;95902.13;;;5.91;69.69
25420;BME280;13354;48.174;11.566;2023-03-03T09:53:46;95916.13;;;5.66;70.13
25420;BME280;13354;48.174;11.566;2023-03-03T09:58:49;95906.13;;;5.95;68.58
25420;BME280;13354;48.174;11.566;2023-03-03T10:01:32;95915.44;;;5.90;68.52
25420;BME280;13354;48.174;11.566;2023-03-03T10:11:36;95924.38;;;5.97;68.76
25420;BME280;13354;48.174;11.566;2023-03-03T10:19:13;95933.47;;;5.85;69.25
25420;BME280;13354;48.174;11.566;2023-03-03T10:21:43;95936.16;;;5.93;68.82
25420;BME280;13354;48.174;11.566;2023-03-03T10:24:28;95929.53;;;6.15;68.26
25420;BME280;13354;48.174;11.566;2023-03-03T10:29:37;95938.38;;;5.79;69.35
25420;BME280;13354;48.174;11.566;2023-03-03T10:32:20;95935.03;;;5.95;69.05
25420;BME280;13354;48.174;11.566;2023-03-03T10:39:53;95938.16;;;5.99;69.15
25420;BME280;13354;48.174;11.566;2023-03-03T10:42:46;95930.22;;;6.25;67.30
25420;BME280;13354;48.174;11.566;2023-03-03T10:47:54;95924.63;;;6.20;67.78
25420;BME280;13354;48.174;11.566;2023-03-03T10:58:36;95931.63;;;6.45;67.00
25420;BME280;13354;48.174;11.566;2023-03-03T11:01:08;95930.81;;;6.53;67.92
25420;BME280;13354;48.174;11.566;2023-03-03T11:06:45;95943.53;;;6.74;66.18
25420;BME280;13354;48.174;11.566;2023-03-03T11:13:58;95940.09;;;6.82;66.26
25420;BME280;13354;48.174;11.566;2023-03-03T11:24:18;95946.34;;;6.97;65.53
25420;BME280;13354;48.174;11.566;2023-03-03T11:34:51;95942.03;;;6.71;66.80
25420;BME280;13354;48.174;11.566;2023-03-03T11:37:23;95945.00;;;6.85;66.55
25420;BME280;13354;48.174;11.566;2023-03-03T11:39:52;95937.78;;;6.87;66.04
25420;BME280;13354;48.174;11.566;2023-03-03T11:44:48;95918.72;;;6.93;65.43
25420;BME280;13354;48.174;11.566;2023-03-03T11:52:26;95914.44;;;7.00;65.21
25420;BME280;13354;48.174;11.566;2023-03-03T11:57:43;95915.25;;;7.17;64.29
25420;BME280;13354;48.174;11.566;2023-03-03T12:05:26;95907.69;;;7.38;63.73
25420;BME280;13354;48.174;11.566;2023-03-03T12:08:16;95905.06;;;7.38;64.32
25420;BME280;13354;48.174;11.566;2023-03-03T12:11:02;95905.06;;;7.30;63.66
25420;BME280;13354;48.174;11.566;2023-03-03T12:13:36;95892.19;;;7.60;63.26
25420;BME280;13354;48.174;11.566;2023-03-03T12:21:47;95892.19;;;7.52;62.83
25420;BME280;13354;48.174;11.566;2023-03-03T12:24:21;95895.94;;;7.65;62.52
25420;BME280;13354;48.174;11.566;2023-03-03T12:34:43;95902.03;;;7.74;62.73
25420;BME280;13354;48.174;11.566;2023-03-03T12:39:43;95893.16;;;8.06;61.45
25420;BME280;13354;48.174;11.566;2023-03-03T12:42:17;95893.72;;;7.93;62.12
25420;BME280;13354;48.174;11.566;2023-03-03T12:44:50;95889.97;;;8.27;61.05
25420;BME280;13354;48.174;11.566;2023-03-03T12:54:57;95875.94;;;8.89;59.54
25420;BME280;13354;48.174;11.566;2023-03-03T12:57:30;95879.50;;;8.96;58.58
25420;BME280;13354;48.174;11.566;2023-03-03T13:02:40;95879.94;;;8.62;59.68
25420;BME280;13354;48.174;11.566;2023-03-03T13:05:15;95876.75;;;8.66;59.29
25420;BME280;13354;48.174;11.566;2023-03-03T13:10:26;95883.19;;;8.64;59.59
25420;BME280;13354;48.174;11.566;2023-03-03T13:22:46;95876.97;;;8.80;59.25
25420;BME280;13354;48.174;11.566;2023-03-03T13:25:19;95875.41;;;8.70;59.17
25420;BME280;13354;48.174;11.566;2023-03-03T13:27:49;95870.22;;;8.54;59.95
25420;BME280;13354;48.174;11.566;2023-03-03T13:30:23;95868.16;;;8.64;59.58
25420;BME280;13354;48.174;11.566;2023-03-03T13:38:23;95869.84;;;9.26;57.10
25420;BME280;13354;48.174;11.566;2023-03-03T13:40:50;95866.69;;;9.08;57.98
25420;BME280;13354;48.174;11.566;2023-03-03T13:43:20;95868.50;;;9.30;57.78
25420;BME280;13354;48.174;11.566;2023-03-03T13:48:57;95850.56;;;10.00;56.21
25420;BME280;13354;48.174;11.566;2023-03-03T13:51:20;95850.75;;;10.28;55.58
25420;BME280;13354;48.174;11.566;2023-03-03T13:53:52;95854.25;;;10.50;55.15
25420;BME280;13354;48.174;11.566;2023-03-03T13:58:56;95852.34;;;10.80;53.56
25420;BME280;13354;48.174;11.566;2023-03-03T14:09:36;95841.22;;;11.12;52.93
25420;BME280;13354;48.174;11.566;2023-03-03T14:17:15;95828.34;;;11.09;53.58
25420;BME280;13354;48.174;11.566;2023-03-03T14:19:49;95832.47;;;11.12;52.66
25420;BME280;13354;48.174;11.566;2023-03-03T14:22:31;95822.53;;;11.21;53.17
25420;BME280;13354;48.174;11.566;2023-03-03T14:25:03;95819.50;;;11.24;53.10
25420;BME280;13354;48.174;11.566;2023-03-03T14:32:52;95821.69;;;11.48;51.93
25420;BME280;13354;48.174;11.566;2023-03-03T14:35:22;95819.72;;;11.57;53.41
25420;BME280;13354;48.174;11.566;2023-03-03T14:37:49;95825.59;;;11.52;52.43
25420;BME280;13354;48.174;11.566;2023-03-03T14:40:18;95820.97;;;11.61;51.84
25420;BME280;13354;48.174;11.566;2023-03-03T14:43:04;95816.44;;;11.55;52.60
25420;BME280;13354;48.174;11.566;2023-03-03T14:45:41;95814.97;;;11.80;51.65
25420;BME280;13354;48.174;11.566;2023-03-03T14:50:35;95815.72;;;11.68;52.23
25420;BME280;13354;48.174;11.566;2023-03-03T14:53:21;95813.88;;;11.68;51.65
25420;BME280;13354;48.174;11.566;2023-03-03T14:55:50;95815.03;;;11.59;52.50
25420;BME280;13354;48.174;11.566;2023-03-03T15:03:58;95821.56;;;11.91;52.38
25420;BME280;13354;48.174;11.566;2023-03-03T15:06:40;95820.25;;;11.80;50.82
25420;BME280;13354;48.174;11.566;2023-03-03T15:09:19;95824.41;;;11.55;50.45
25420;BME280;13354;48.174;11.566;2023-03-03T15:11:44;95825.47;;;11.32;51.67
25420;BME280;13354;48.174;11.566;2023-03-03T15:14:11;95821.78;;;11.27;51.79
25420;BME280;13354;48.174;11.566;2023-03-03T15:16:38;95817.28;;;11.27;51.89
25420;BME280;13354;48.174;11.566;2023-03-03T15:29:23;95833.34;;;10.98;52.38
25420;BME280;13354;48.174;11.566;2023-03-03T15:44:30;95836.72;;;10.49;53.60
25420;BME280;13354;48.174;11.566;2023-03-03T15:47:06;95839.06;;;10.58;53.55
25420;BME280;13354;48.174;11.566;2023-03-03T15:54:57;95831.38;;;10.42;54.83
25420;BME280;13354;48.174;11.566;2023-03-03T16:00:01;95831.03;;;10.30;54.77
25420;BME280;13354;48.174;11.566;2023-03-03T16:02:33;95825.94;;;10.29;54.70
25420;BME280;13354;48.174;11.566;2023-03-03T16:05:16;95829.47;;;10.21;55.21
25420;BME280;13354;48.174;11.566;2023-03-03T16:20:38;95847.94;;;10.00;56.32
25420;BME280;13354;48.174;11.566;2023-03-03T16:25:53;95850.03;;;9.75;56.56
25420;BME280;13354;48.174;11.566;2023-03-03T16:33:46;95849.75;;;9.55;57.35
25420;BME280;13354;48.174;11.566;2023-03-03T16:36:20;95848.97;;;9.31;57.90
25420;BME280;13354;48.174;11.566;2023-03-03T16:39:10;95852.94;;;9.35;58.30
25420;BME280;13354;48.174;11.566;2023-03-03T16:41:45;95859.75;;;9.30;58.36
25420;BME280;13354;48.174;11.566;2023-03-03T16:47:28;95862.78;;;9.04;58.83
25420;BME280;13354;48.174;11.566;2023-03-03T16:52:17;95871.69;;;8.80;59.99
25420;BME280;13354;48.174;11.566;2023-03-03T16:55:02;95866.88;;;8.83;59.55
25420;BME280;13354;48.174;11.566;2023-03-03T17:00:27;95881.03;;;8.67;60.66
25420;BME280;13354;48.174;11.566;2023-03-03T17:08:16;95883.88;;;8.58;61.01
25420;BME280;13354;48.174;11.566;2023-03-03T17:13:22;95885.59;;;8.51;61.06
25420;BME280;13354;48.174;11.566;2023-03-03T17:16:01;95878.97;;;8.55;60.96
25420;BME280;13354;48.174;11.566;2023-03-03T17:21:00;95891.09;;;8.33;61.67
25420;BME280;13354;48.174;11.566;2023-03-03T17:33:56;95905.75;;;7.96;63.25
25420;BME280;13354;48.174;11.566;2023-03-03T17:36:30;95907.91;;;7.92;63.15
25420;BME280;13354;48.174;11.566;2023-03-03T17:39:00;95913.22;;;7.84;63.61